createdAt,value
2023-05-18T00:00:27.110Z,31.59
2023-05-18T00:03:15.965Z,32.02
2023-05-18T00:06:07.109Z,31.80
2023-05-18T00:08:57.174Z,32.15
2023-05-18T00:11:45.844Z,32.31
2023-05-18T00:14:34.624Z,31.85
2023-05-18T00:17:23.552Z,31.77
2023-05-18T00:20:12.930Z,31.94
2023-05-18T00:23:02.414Z,31.88
2023-05-18T00:25:52.489Z,32.15
2023-05-18T00:28:41.150Z,32.26
2023-05-18T00:31:29.895Z,32.31
2023-05-18T00:34:18.615Z,32.05
2023-05-18T00:37:07.239Z,32.05
2023-05-18T00:39:55.922Z,32.28
2023-05-18T00:42:45.991Z,31.85
2023-05-18T00:45:34.926Z,32.11
2023-05-18T00:48:23.581Z,31.88
2023-05-18T00:51:13.008Z,32.08
2023-05-18T00:54:03.714Z,31.71
2023-05-18T00:56:52.962Z,32.24
2023-05-18T00:59:43.306Z,32.31
2023-05-18T01:02:32.094Z,31.98
2023-05-18T01:05:22.268Z,32.27
2023-05-18T01:08:11.138Z,32.26
2023-05-18T01:11:20.920Z,32.44
2023-05-18T01:14:17.070Z,32.56
2023-05-18T01:17:18.424Z,31.85
2023-05-18T01:20:34.010Z,31.99
2023-05-18T01:23:46.875Z,31.86
2023-05-18T01:26:40.368Z,32.02
2023-05-18T01:29:31.446Z,32.41
2023-05-18T01:32:20.970Z,32.01
2023-05-18T01:35:10.598Z,32.17
2023-05-18T01:37:59.297Z,31.69
2023-05-18T01:40:56.620Z,31.83
2023-05-18T01:43:53.803Z,32.05
2023-05-18T01:46:50.988Z,31.70
2023-05-18T01:49:44.708Z,31.96
2023-05-18T01:52:38.505Z,32.19
2023-05-18T01:55:31.583Z,31.64
2023-05-18T01:58:21.882Z,32.04
2023-05-18T02:01:12.317Z,32.23
2023-05-18T02:04:01.171Z,32.08
2023-05-18T02:06:49.920Z,31.95
2023-05-18T02:09:41.469Z,32.06
2023-05-18T02:12:31.519Z,32.00
2023-05-18T02:15:20.333Z,31.92
2023-05-18T02:18:10.434Z,31.94
2023-05-18T02:21:00.493Z,32.20
2023-05-18T02:23:49.222Z,32.30
2023-05-18T02:26:38.259Z,32.06
2023-05-18T02:29:27.002Z,32.36
2023-05-18T02:32:16.932Z,32.29
2023-05-18T02:35:08.373Z,32.08
2023-05-18T02:37:58.268Z,32.10
2023-05-18T02:40:46.936Z,32.49
2023-05-18T02:43:35.960Z,32.28
2023-05-18T02:46:24.795Z,32.00
2023-05-18T02:49:13.776Z,31.94
2023-05-18T02:52:03.806Z,32.18
2023-05-18T02:54:54.758Z,32.22
2023-05-18T02:57:46.951Z,32.31
2023-05-18T03:00:35.836Z,32.03
2023-05-18T03:03:25.934Z,32.45
2023-05-18T03:06:16.061Z,32.22
2023-05-18T03:09:06.204Z,32.19
2023-05-18T03:11:54.907Z,32.39
2023-05-18T03:14:43.659Z,32.59
2023-05-18T03:17:32.418Z,32.44
2023-05-18T03:20:21.855Z,32.71
2023-05-18T03:23:10.637Z,32.22
2023-05-18T03:26:02.667Z,32.20
2023-05-18T03:28:51.454Z,32.26
2023-05-18T03:31:40.192Z,32.02
2023-05-18T03:34:28.893Z,32.15
2023-05-18T03:37:17.595Z,32.42
2023-05-18T03:40:12.006Z,32.12
2023-05-18T03:43:04.183Z,32.33
2023-05-18T03:45:52.978Z,32.61
2023-05-18T03:48:42.699Z,32.44
2023-05-18T03:51:31.380Z,32.43
2023-05-18T03:54:20.051Z,32.39
2023-05-18T03:57:08.757Z,32.53
2023-05-18T03:59:58.880Z,32.17
2023-05-18T04:02:47.636Z,32.22
2023-05-18T04:05:36.385Z,32.24
2023-05-18T04:08:26.169Z,32.21
2023-05-18T04:11:14.983Z,32.43
2023-05-18T04:14:03.715Z,32.47
2023-05-18T04:16:53.861Z,32.47
2023-05-18T04:19:42.541Z,32.04
2023-05-18T04:22:31.366Z,32.18
2023-05-18T04:25:20.305Z,32.59
2023-05-18T04:28:09.891Z,32.59
2023-05-18T04:30:58.940Z,32.46
2023-05-18T04:33:51.307Z,32.40
2023-05-18T04:36:42.605Z,32.35
2023-05-18T04:39:31.258Z,32.77
2023-05-18T04:42:20.122Z,32.42
2023-05-18T04:45:12.916Z,32.41
2023-05-18T04:48:02.035Z,32.43
2023-05-18T04:50:54.316Z,32.68
2023-05-18T04:53:42.975Z,32.24
2023-05-18T04:56:31.641Z,32.50
2023-05-18T04:59:20.850Z,32.49
2023-05-18T05:02:09.546Z,32.28
2023-05-18T05:04:58.214Z,32.38
2023-05-18T05:07:48.214Z,32.11
2023-05-18T05:10:36.901Z,32.28
2023-05-18T05:13:25.670Z,32.31
2023-05-18T05:16:14.351Z,32.36
2023-05-18T05:19:03.122Z,32.46
2023-05-18T05:21:51.788Z,32.60
2023-05-18T05:24:41.819Z,32.43
2023-05-18T05:27:31.162Z,32.18
2023-05-18T05:30:21.041Z,31.96
2023-05-18T05:33:09.819Z,31.99
2023-05-18T05:35:58.557Z,32.35
2023-05-18T05:38:47.325Z,32.00
2023-05-18T05:41:37.431Z,31.78
2023-05-18T05:44:26.129Z,32.09
2023-05-18T05:47:15.165Z,31.94
2023-05-18T05:50:03.941Z,32.31
2023-05-18T05:52:52.691Z,32.49
2023-05-18T05:55:42.184Z,32.68
2023-05-18T05:58:32.202Z,32.33
2023-05-18T06:01:22.785Z,32.52
2023-05-18T06:04:12.693Z,32.46
2023-05-18T06:07:01.731Z,32.07
2023-05-18T06:09:50.468Z,32.26
2023-05-18T06:12:39.140Z,32.31
2023-05-18T06:15:29.296Z,32.47
2023-05-18T06:18:18.821Z,32.57
2023-05-18T06:21:07.887Z,32.42
2023-05-18T06:23:56.693Z,32.34
2023-05-18T06:26:45.371Z,32.77
2023-05-18T06:29:34.002Z,32.44
2023-05-18T06:32:24.524Z,32.44
2023-05-18T06:35:13.908Z,32.42
2023-05-18T06:38:02.993Z,32.63
2023-05-18T06:40:51.633Z,32.67
2023-05-18T06:43:40.217Z,32.36
2023-05-18T06:46:28.960Z,32.80
2023-05-18T06:49:19.139Z,32.33
2023-05-18T06:52:09.917Z,32.83
2023-05-18T06:55:01.361Z,32.59
2023-05-18T06:57:50.027Z,32.48
2023-05-18T07:00:39.832Z,32.38
2023-05-18T07:03:29.858Z,32.77
2023-05-18T07:06:19.960Z,32.63
2023-05-18T07:09:09.169Z,32.64
2023-05-18T07:11:57.772Z,32.37
2023-05-18T07:14:46.723Z,32.69
2023-05-18T07:17:35.597Z,32.42
2023-05-18T07:20:26.395Z,32.43
2023-05-18T07:23:16.852Z,32.44
2023-05-18T07:26:08.127Z,32.63
2023-05-18T07:28:56.830Z,32.22
2023-05-18T07:31:45.993Z,32.56
2023-05-18T07:34:34.764Z,32.25
2023-05-18T07:37:23.505Z,32.27
2023-05-18T07:40:14.756Z,32.22
2023-05-18T07:43:03.394Z,32.26
2023-05-18T07:45:52.104Z,32.66
2023-05-18T07:48:41.281Z,32.40
2023-05-18T07:51:30.693Z,32.49
2023-05-18T07:54:19.361Z,32.53
2023-05-18T07:57:14.189Z,32.41
2023-05-18T08:00:04.851Z,32.48
2023-05-18T08:02:54.144Z,33.05
2023-05-18T08:05:43.625Z,32.54
2023-05-18T08:08:32.330Z,31.89
2023-05-18T08:11:21.935Z,31.55
2023-05-18T08:14:11.930Z,30.47
2023-05-18T08:17:00.949Z,30.08
2023-05-18T08:19:49.987Z,30.14
2023-05-18T08:22:38.707Z,30.13
2023-05-18T08:25:27.472Z,30.29
2023-05-18T08:28:16.210Z,30.79
2023-05-18T08:31:07.220Z,30.46
2023-05-18T08:33:55.897Z,30.14
2023-05-18T08:36:45.931Z,29.92
2023-05-18T08:39:34.675Z,29.51
2023-05-18T08:42:27.685Z,29.40
2023-05-18T08:45:31.861Z,29.05
2023-05-18T08:48:27.132Z,28.69
2023-05-18T08:51:20.840Z,29.23
2023-05-18T08:54:11.537Z,29.40
2023-05-18T08:57:00.504Z,29.10
2023-05-18T08:59:50.932Z,28.99
2023-05-18T09:02:40.112Z,29.32
2023-05-18T09:05:30.425Z,29.18
2023-05-18T09:08:20.446Z,29.26
2023-05-18T09:11:10.312Z,29.34
2023-05-18T09:14:03.282Z,29.23
2023-05-18T09:16:51.994Z,29.22
2023-05-18T09:19:40.600Z,29.62
2023-05-18T09:22:30.995Z,29.27
2023-05-18T09:25:20.338Z,28.99
2023-05-18T09:28:08.949Z,29.03
2023-05-18T09:30:57.671Z,28.92
2023-05-18T09:33:47.840Z,28.75
2023-05-18T09:36:36.476Z,28.72
2023-05-18T09:39:26.495Z,28.74
2023-05-18T09:42:15.357Z,29.06
2023-05-18T09:45:04.434Z,29.16
2023-05-18T09:47:53.480Z,28.79
2023-05-18T09:50:42.278Z,28.70
2023-05-18T09:53:30.934Z,28.92
2023-05-18T09:56:21.586Z,29.00
2023-05-18T09:59:11.537Z,29.21
2023-05-18T10:02:02.099Z,29.36
2023-05-18T10:04:54.362Z,29.92
2023-05-18T10:07:45.401Z,29.55
2023-05-18T10:10:34.510Z,29.50
2023-05-18T10:13:28.196Z,28.80
2023-05-18T10:16:17.552Z,28.61
2023-05-18T10:19:08.047Z,27.97
2023-05-18T10:21:57.217Z,28.27
2023-05-18T10:24:50.895Z,28.09
2023-05-18T10:27:40.532Z,27.92
2023-05-18T10:30:31.640Z,28.32
2023-05-18T10:33:28.981Z,28.41
2023-05-18T10:36:19.482Z,27.89
2023-05-18T10:39:09.037Z,28.17
2023-05-18T10:42:00.002Z,28.49
2023-05-18T10:44:52.060Z,27.77
2023-05-18T10:47:45.040Z,27.93
2023-05-18T10:50:34.054Z,27.79
2023-05-18T10:53:25.872Z,28.01
2023-05-18T10:56:14.672Z,28.11
2023-05-18T10:59:03.620Z,28.24
2023-05-18T11:01:55.585Z,28.34
2023-05-18T11:04:48.535Z,28.46
2023-05-18T11:07:37.332Z,28.67
2023-05-18T11:10:34.477Z,28.92
2023-05-18T11:13:30.595Z,28.52
2023-05-18T11:16:23.091Z,28.50
2023-05-18T11:19:12.316Z,28.59
2023-05-18T11:22:13.815Z,28.71
2023-05-18T11:25:05.558Z,29.29
2023-05-18T11:27:55.615Z,28.73
2023-05-18T11:30:49.991Z,28.76
2023-05-18T11:33:43.082Z,28.51
2023-05-18T11:36:33.172Z,28.76
2023-05-18T11:39:26.588Z,28.64
2023-05-18T11:42:17.227Z,28.24
2023-05-18T11:45:09.080Z,28.27
2023-05-18T11:47:59.160Z,28.24
2023-05-18T11:50:48.137Z,28.24
2023-05-18T11:53:36.900Z,28.24
2023-05-18T11:56:30.156Z,28.19
2023-05-18T11:59:31.486Z,28.01
2023-05-18T12:02:22.065Z,28.10
2023-05-18T12:05:11.428Z,28.02
2023-05-18T12:08:01.318Z,27.49
2023-05-18T12:10:50.859Z,27.67
2023-05-18T12:13:42.795Z,27.64
2023-05-18T12:16:33.431Z,27.66
2023-05-18T12:19:23.800Z,27.92
2023-05-18T12:22:13.388Z,27.50
2023-05-18T12:25:02.082Z,27.75
2023-05-18T12:27:54.975Z,27.86
2023-05-18T12:30:45.156Z,27.67
2023-05-18T12:33:36.046Z,27.88
2023-05-18T12:36:25.778Z,27.74
2023-05-18T12:39:17.094Z,27.68
2023-05-18T12:42:14.936Z,27.64
2023-05-18T12:45:06.378Z,27.79
2023-05-18T12:47:57.624Z,27.91
2023-05-18T12:50:51.956Z,27.68
2023-05-18T12:53:44.973Z,27.53
2023-05-18T12:57:01.435Z,27.69
2023-05-18T12:59:51.435Z,27.46
2023-05-18T13:02:40.744Z,27.79
2023-05-18T13:05:31.036Z,27.65
2023-05-18T13:08:23.041Z,27.98
2023-05-18T13:11:14.756Z,27.67
2023-05-18T13:14:05.289Z,27.59
2023-05-18T13:16:54.078Z,27.43
2023-05-18T13:19:42.789Z,27.75
2023-05-18T13:22:33.047Z,27.75
2023-05-18T13:25:21.954Z,28.32
2023-05-18T13:28:12.059Z,27.96
2023-05-18T13:31:00.836Z,27.99
2023-05-18T13:33:50.114Z,28.11
2023-05-18T13:36:38.786Z,28.06
2023-05-18T13:39:29.134Z,27.84
2023-05-18T13:42:21.149Z,27.53
2023-05-18T13:45:12.707Z,27.76
2023-05-18T13:48:09.288Z,27.87
2023-05-18T13:50:59.046Z,28.15
2023-05-18T13:53:47.778Z,28.17
2023-05-18T13:56:37.842Z,28.31
2023-05-18T13:59:27.635Z,27.71
2023-05-18T14:02:16.699Z,27.68
2023-05-18T14:05:08.515Z,27.76
2023-05-18T14:07:57.310Z,27.61
2023-05-18T14:10:46.145Z,27.68
2023-05-18T14:13:36.205Z,27.88
2023-05-18T14:16:25.576Z,27.24
2023-05-18T14:19:14.341Z,27.04
2023-05-18T14:22:03.012Z,27.44
2023-05-18T14:24:51.698Z,26.92
2023-05-18T14:27:40.446Z,26.89
2023-05-18T14:30:31.116Z,27.04
2023-05-18T14:33:19.913Z,27.03
2023-05-18T14:36:08.757Z,26.60
2023-05-18T14:38:57.644Z,26.96
2023-05-18T14:41:46.413Z,27.02
2023-05-18T14:44:35.201Z,27.44
2023-05-18T14:47:26.130Z,27.47
2023-05-18T14:50:14.945Z,27.13
2023-05-18T14:53:03.646Z,27.26
2023-05-18T14:55:52.871Z,26.94
2023-05-18T14:58:41.718Z,26.85
2023-05-18T15:01:30.524Z,26.72
2023-05-18T15:04:21.942Z,26.69
2023-05-18T15:07:10.911Z,26.58
2023-05-18T15:09:59.700Z,26.35
2023-05-18T15:12:48.406Z,26.87
2023-05-18T15:15:37.171Z,26.66
2023-05-18T15:18:26.224Z,26.73
2023-05-18T15:21:18.266Z,26.67
2023-05-18T15:24:07.448Z,26.56
2023-05-18T15:26:56.188Z,26.95
2023-05-18T15:29:44.907Z,26.96
2023-05-18T15:32:33.639Z,26.37
2023-05-18T15:35:22.865Z,26.43
2023-05-18T15:38:13.106Z,26.53
2023-05-18T15:41:01.837Z,26.28
2023-05-18T15:43:50.570Z,26.39
2023-05-18T15:46:39.359Z,26.37
2023-05-18T15:49:28.620Z,26.54
2023-05-18T15:52:17.228Z,26.35
2023-05-18T15:55:08.826Z,26.13
2023-05-18T15:57:57.675Z,26.27
2023-05-18T16:00:46.326Z,26.47
2023-05-18T16:03:35.036Z,26.34
2023-05-18T16:06:23.684Z,26.58
2023-05-18T16:09:12.417Z,26.31
2023-05-18T16:12:02.838Z,26.79
2023-05-18T16:14:51.907Z,26.76
2023-05-18T16:17:40.675Z,26.53
2023-05-18T16:20:29.958Z,27.17
2023-05-18T16:23:19.040Z,27.06
2023-05-18T16:26:07.683Z,27.51
2023-05-18T16:28:59.034Z,27.14
2023-05-18T16:31:47.898Z,26.98
2023-05-18T16:34:36.609Z,27.03
2023-05-18T16:37:25.534Z,26.80
2023-05-18T16:40:14.438Z,27.30
2023-05-18T16:43:03.087Z,27.31
2023-05-18T16:45:53.073Z,27.42
2023-05-18T16:48:41.846Z,27.82
2023-05-18T16:51:31.720Z,27.65
2023-05-18T16:54:20.521Z,27.56
2023-05-18T16:57:13.067Z,28.08
2023-05-18T17:00:02.000Z,27.44
2023-05-18T17:02:52.653Z,27.77
2023-05-18T17:05:41.558Z,27.51
2023-05-18T17:08:30.371Z,27.49
2023-05-18T17:11:19.072Z,27.65
2023-05-18T17:14:08.101Z,27.93
2023-05-18T17:16:56.944Z,27.79
2023-05-18T17:19:47.047Z,27.89
2023-05-18T17:22:35.772Z,27.47
2023-05-18T17:25:24.659Z,27.32
2023-05-18T17:28:13.868Z,27.34
2023-05-18T17:31:02.655Z,27.53
2023-05-18T17:33:51.452Z,27.20
2023-05-18T17:36:42.520Z,27.12
2023-05-18T17:39:31.650Z,27.26
2023-05-18T17:42:20.431Z,27.19
2023-05-18T17:45:10.035Z,27.53
2023-05-18T17:47:59.054Z,27.39
2023-05-18T17:50:47.863Z,27.54
2023-05-18T17:53:41.935Z,27.44
2023-05-18T17:56:31.714Z,27.38
2023-05-18T17:59:20.535Z,27.27
2023-05-18T18:02:10.924Z,27.10
2023-05-18T18:04:59.741Z,27.41
2023-05-18T18:07:48.409Z,27.37
2023-05-18T18:10:38.453Z,27.55
2023-05-18T18:13:27.376Z,27.60
2023-05-18T18:16:16.740Z,27.83
2023-05-18T18:19:05.511Z,27.75
2023-05-18T18:21:55.380Z,27.81
2023-05-18T18:24:44.087Z,27.89
2023-05-18T18:27:34.732Z,28.08
2023-05-18T18:30:23.531Z,27.85
2023-05-18T18:33:12.459Z,28.32
2023-05-18T18:36:02.154Z,28.08
2023-05-18T18:38:51.183Z,28.15
2023-05-18T18:41:41.280Z,28.36
2023-05-18T18:44:31.355Z,28.36
2023-05-18T18:47:20.102Z,28.19
2023-05-18T18:50:09.567Z,28.18
2023-05-18T18:52:58.407Z,27.77
2023-05-18T18:55:47.130Z,28.16
2023-05-18T18:58:35.945Z,27.85
2023-05-18T19:01:31.678Z,27.98
2023-05-18T19:04:21.048Z,27.88
2023-05-18T19:07:09.859Z,27.69
2023-05-18T19:09:58.615Z,28.05
2023-05-18T19:12:48.621Z,28.03
2023-05-18T19:15:38.556Z,27.91
2023-05-18T19:18:28.643Z,27.82
2023-05-18T19:21:17.352Z,28.04
2023-05-18T19:24:07.290Z,28.18
2023-05-18T19:26:56.773Z,28.02
2023-05-18T19:29:45.555Z,27.78
2023-05-18T19:32:43.197Z,27.67
2023-05-18T19:35:34.054Z,27.96
2023-05-18T19:38:23.041Z,27.85
2023-05-18T19:41:12.686Z,28.16
2023-05-18T19:44:01.326Z,27.71
2023-05-18T19:46:50.107Z,27.77
2023-05-18T19:49:38.810Z,27.99
2023-05-18T19:52:28.850Z,28.13
2023-05-18T19:55:20.952Z,27.89
2023-05-18T19:58:09.781Z,28.13
2023-05-18T20:00:59.101Z,27.77
2023-05-18T20:03:49.683Z,27.89
2023-05-18T20:06:38.505Z,27.72
2023-05-18T20:09:29.288Z,27.46
2023-05-18T20:12:18.072Z,27.71
2023-05-18T20:15:08.748Z,27.63
2023-05-18T20:17:57.504Z,27.70
2023-05-18T20:20:46.215Z,27.70
2023-05-18T20:23:34.970Z,28.08
2023-05-18T20:26:26.743Z,28.09
2023-05-18T20:29:16.029Z,28.56
2023-05-18T20:32:06.969Z,28.71
2023-05-18T20:34:55.719Z,29.22
2023-05-18T20:37:45.407Z,29.09
2023-05-18T20:40:37.842Z,29.09
2023-05-18T20:43:28.486Z,29.05
2023-05-18T20:46:17.188Z,29.16
2023-05-18T20:49:06.015Z,29.33
2023-05-18T20:51:54.668Z,29.45
2023-05-18T20:54:43.423Z,29.65
2023-05-18T20:57:32.248Z,29.67
2023-05-18T21:00:22.267Z,29.84
2023-05-18T21:03:11.055Z,29.59
2023-05-18T21:05:59.849Z,29.84
2023-05-18T21:08:48.431Z,29.65
2023-05-18T21:11:37.128Z,29.95
2023-05-18T21:14:25.979Z,29.74
2023-05-18T21:17:16.262Z,29.76
2023-05-18T21:20:05.655Z,30.02
2023-05-18T21:22:54.383Z,29.87
2023-05-18T21:25:44.707Z,30.18
2023-05-18T21:28:33.360Z,30.10
2023-05-18T21:31:22.236Z,30.29
2023-05-18T21:34:12.417Z,30.06
2023-05-18T21:37:03.537Z,30.06
2023-05-18T21:39:52.308Z,30.28
2023-05-18T21:42:45.248Z,30.38
2023-05-18T21:45:35.497Z,29.85
2023-05-18T21:48:26.350Z,30.38
2023-05-18T21:51:16.619Z,30.38
2023-05-18T21:54:05.537Z,30.65
2023-05-18T21:56:54.532Z,30.16
2023-05-18T21:59:43.262Z,30.30
2023-05-18T22:02:32.000Z,30.05
2023-05-18T22:05:21.074Z,30.36
2023-05-18T22:08:11.340Z,30.58
2023-05-18T22:11:00.001Z,30.32
2023-05-18T22:13:48.888Z,30.36
2023-05-18T22:16:37.622Z,30.60
2023-05-18T22:19:26.351Z,30.67
2023-05-18T22:22:29.101Z,30.59
2023-05-18T22:25:20.105Z,30.46
2023-05-18T22:28:08.808Z,30.67
2023-05-18T22:30:57.443Z,30.60
2023-05-18T22:33:46.163Z,30.66
2023-05-18T22:36:35.334Z,30.86
2023-05-18T22:39:24.073Z,30.65
2023-05-18T22:42:14.188Z,30.83
2023-05-18T22:45:03.658Z,30.91
2023-05-18T22:47:52.799Z,30.97
2023-05-18T22:50:42.267Z,30.80
2023-05-18T22:53:31.002Z,30.92
2023-05-18T22:56:21.011Z,31.02
2023-05-18T22:59:11.875Z,30.71
2023-05-18T23:02:00.843Z,30.47
2023-05-18T23:04:49.607Z,30.26
2023-05-18T23:07:38.502Z,30.29
2023-05-18T23:10:27.292Z,30.33
2023-05-18T23:13:16.937Z,30.82
2023-05-18T23:16:10.431Z,30.73
2023-05-18T23:19:01.734Z,30.94
2023-05-18T23:21:50.560Z,30.81
2023-05-18T23:24:39.227Z,30.85
2023-05-18T23:27:27.891Z,30.31
2023-05-18T23:30:16.670Z,30.50
2023-05-18T23:33:07.662Z,30.47
2023-05-18T23:36:02.403Z,30.78
2023-05-18T23:38:53.099Z,30.57
2023-05-18T23:41:42.676Z,30.84
2023-05-18T23:44:31.884Z,30.85
2023-05-18T23:47:22.029Z,30.43
2023-05-18T23:50:13.420Z,30.75
2023-05-18T23:53:04.779Z,30.94
2023-05-18T23:55:56.726Z,30.66
2023-05-18T23:58:47.103Z,30.70
